Time,TemperatureF,DewpointF,PressureIn,WindDirection,WindDirectionDegrees,WindSpeedMPH,WindSpeedGustMPH,Humidity,HourlyPrecipIn,Conditions,Clouds,dailyrainin,SolarRadiationWatts/m^2,SoftwareType,DateUTC
2013-07-21 00:05:00,54.5,51.0,29.82,NE,35,0.0,0.0,88,0.00,,,0.00,0,Wunderground v.1.15,2013-07-21 07:05:00,
2013-07-21 00:15:00,54.3,50.8,29.82,NE,35,0.0,0.0,88,0.00,,,0.00,0,Wunderground v.1.15,2013-07-21 07:15:00,
2013-07-21 00:25:00,54.1,50.9,29.81,NE,34,0.0,0.0,89,0.00,,,0.00,0,Wunderground v.1.15,2013-07-21 07:25:00,
2013-07-21 00:35:00,53.7,50.5,29.81,NE,34,0.0,0.0,89,0.00,,,0.00,0,Wunderground v.1.15,2013-07-21 07:35:00,
2013-07-21 00:45:00,53.2,50.0,29.81,NE,34,0.0,0.0,89,0.00,,,0.00,0,Wunderground v.1.15,2013-07-21 07:45:00,
2013-07-21 00:55:00,53.0,50.1,29.81,NE,34,0.0,0.0,90,0.00,,,0.00,0,Wunderground v.1.15,2013-07-21 07:55:00,
2013-07-21 01:05:00,52.7,49.8,29.81,NE,34,0.0,0.0,90,0.00,,,0.00,0,Wunderground v.1.15,2013-07-21 08:05:00,
2013-07-21 01:15:00,52.5,49.9,29.81,NE,35,0.0,0.0,91,0.00,,,0.00,0,Wunderground v.1.15,2013-07-21 08:15:00,
2013-07-21 01:25:00,52.2,49.7,29.80,NE,35,0.0,0.0,91,0.00,,,0.00,0,Wunderground v.1.15,2013-07-21 08:25:00,
2013-07-21 01:35:00,52.0,49.7,29.80,NE,34,0.0,0.0,92,0.00,,,0.00,0,Wunderground v.1.15,2013-07-21 08:35:00,
2013-07-21 01:45:00,51.9,49.6,29.80,NE,35,0.0,0.0,92,0.00,,,0.00,0,Wunderground v.1.15,2013-07-21 08:45:00,
2013-07-21 01:55:00,51.8,49.8,29.80,NE,35,0.0,0.0,93,0.00,,,0.00,0,Wunderground v.1.15,2013-07-21 08:55:00,
2013-07-21 02:05:00,51.8,49.8,29.80,NE,34,0.0,0.0,93,0.00,,,0.00,0,Wunderground v.1.15,2013-07-21 09:05:00,
2013-07-21 02:15:00,51.8,49.8,29.80,NE,35,0.0,0.0,93,0.00,,,0.00,0,Wunderground v.1.15,2013-07-21 09:15:00,
2013-07-21 02:25:00,51.7,49.7,29.80,NE,35,0.0,0.0,93,0.00,,,0.00,0,Wunderground v.1.15,2013-07-21 09:25:00,
2013-07-21 02:35:00,51.8,50.1,29.80,NE,34,0.0,0.0,94,0.00,,,0.00,0,Wunderground v.1.15,2013-07-21 09:35:00,
2013-07-21 02:45:00,51.9,50.2,29.79,NE,35,0.0,0.0,94,0.00,,,0.00,0,Wunderground v.1.15,2013-07-21 09:45:00,
2013-07-21 02:55:00,51.9,50.2,29.79,NE,35,0.0,0.0,94,0.00,,,0.00,0,Wunderground v.1.15,2013-07-21 09:55:00,
2013-07-21 03:05:00,51.9,50.2,29.79,NE,34,0.0,0.0,94,0.00,,,0.00,0,Wunderground v.1.15,2013-07-21 10:05:00,
2013-07-21 03:15:00,51.9,50.2,29.79,NE,34,0.0,0.0,94,0.00,,,0.00,0,Wunderground v.1.15,2013-07-21 10:15:00,
2013-07-21 03:25:00,51.9,50.2,29.79,NE,35,0.0,0.0,94,0.00,,,0.00,0,Wunderground v.1.15,2013-07-21 10:25:00,
2013-07-21 03:35:00,51.9,50.2,29.79,NE,34,0.0,0.0,94,0.00,,,0.00,0,Wunderground v.1.15,2013-07-21 10:35:00,
2013-07-21 03:45:00,51.8,50.1,29.79,NE,35,0.0,0.0,94,0.00,,,0.00,0,Wunderground v.1.15,2013-07-21 10:45:00,
2013-07-21 03:55:00,51.8,50.4,29.79,NE,35,0.0,0.0,95,0.00,,,0.00,0,Wunderground v.1.15,2013-07-21 10:55:00,
2013-07-21 04:05:00,51.8,50.1,29.79,NE,35,0.0,0.0,94,0.00,,,0.00,0,Wunderground v.1.15,2013-07-21 11:05:00,
2013-07-21 04:15:00,52.0,50.6,29.78,NE,35,0.0,0.0,95,0.00,,,0.00,0,Wunderground v.1.15,2013-07-21 11:15:00,
2013-07-21 04:25:00,52.2,50.8,29.79,NE,35,0.0,0.0,95,0.00,,,0.00,0,Wunderground v.1.15,2013-07-21 11:25:00,
2013-07-21 04:35:00,52.5,51.1,29.79,NE,35,0.0,0.0,95,0.00,,,0.00,0,Wunderground v.1.15,2013-07-21 11:35:00,
2013-07-21 04:45:00,52.6,51.2,29.79,NE,34,0.0,0.0,95,0.00,,,0.00,0,Wunderground v.1.15,2013-07-21 11:45:00,
2013-07-21 04:55:00,52.6,51.2,29.78,NE,35,0.0,0.0,95,0.00,,,0.00,0,Wunderground v.1.15,2013-07-21 11:55:00,
2013-07-21 05:05:00,52.6,51.2,29.79,NE,34,0.0,0.0,95,0.00,,,0.00,0,Wunderground v.1.15,2013-07-21 12:05:00,
2013-07-21 05:15:00,52.6,51.2,29.79,NE,35,0.0,0.0,95,0.00,,,0.00,0,Wunderground v.1.15,2013-07-21 12:15:00,
2013-07-21 05:25:00,52.8,51.4,29.80,NE,34,0.0,0.0,95,0.00,,,0.00,0,Wunderground v.1.15,2013-07-21 12:25:00,
2013-07-21 05:35:00,53.0,51.6,29.79,NNW,345,0.0,0.0,95,0.00,,,0.00,0,Wunderground v.1.15,2013-07-21 12:35:00,
2013-07-21 05:45:00,53.0,51.6,29.79,NNW,345,0.0,0.0,95,0.00,,,0.00,0,Wunderground v.1.15,2013-07-21 12:45:00,
2013-07-21 05:55:00,53.0,51.6,29.80,NNW,344,0.0,0.0,95,0.00,,,0.00,0,Wunderground v.1.15,2013-07-21 12:55:00,
2013-07-21 06:05:00,53.0,51.6,29.80,NNW,345,0.0,0.0,95,0.00,,,0.00,0,Wunderground v.1.15,2013-07-21 13:05:00,
2013-07-21 06:15:00,53.0,51.6,29.80,NNW,345,0.0,0.0,95,0.00,,,0.00,7,Wunderground v.1.15,2013-07-21 13:15:00,
2013-07-21 06:25:00,53.1,51.7,29.80,NNW,345,0.0,0.0,95,0.00,,,0.00,11,Wunderground v.1.15,2013-07-21 13:25:00,
2013-07-21 06:35:00,53.1,51.7,29.80,NNW,345,0.0,0.0,95,0.00,,,0.00,16,Wunderground v.1.15,2013-07-21 13:35:00,
2013-07-21 06:45:00,53.2,51.8,29.80,NNW,345,0.0,0.0,95,0.00,,,0.00,26,Wunderground v.1.15,2013-07-21 13:45:00,
2013-07-21 06:55:00,53.3,51.9,29.81,NNW,345,0.0,0.0,95,0.00,,,0.00,30,Wunderground v.1.15,2013-07-21 13:55:00,
2013-07-21 07:05:00,53.4,52.3,29.81,NNW,344,0.0,0.0,96,0.00,,,0.00,37,Wunderground v.1.15,2013-07-21 14:05:00,
2013-07-21 07:15:00,53.5,52.4,29.81,NNW,345,0.0,0.0,96,0.00,,,0.00,74,Wunderground v.1.15,2013-07-21 14:15:00,
2013-07-21 07:25:00,53.6,52.5,29.81,NNW,344,0.0,0.0,96,0.00,,,0.00,63,Wunderground v.1.15,2013-07-21 14:25:00,
2013-07-21 07:35:00,53.7,52.6,29.82,NNW,345,0.0,0.0,96,0.00,,,0.00,77,Wunderground v.1.15,2013-07-21 14:35:00,
2013-07-21 07:45:00,53.8,52.7,29.81,NNW,344,0.0,0.0,96,0.00,,,0.00,114,Wunderground v.1.15,2013-07-21 14:45:00,
2013-07-21 07:55:00,54.0,52.9,29.82,SW,229,0.0,0.0,96,0.00,,,0.00,156,Wunderground v.1.15,2013-07-21 14:55:00,
2013-07-21 08:05:00,54.5,53.4,29.82,SW,229,0.0,0.0,96,0.00,,,0.00,213,Wunderground v.1.15,2013-07-21 15:05:00,
2013-07-21 08:15:00,54.8,53.7,29.82,WNW,294,1.0,1.0,96,0.00,,,0.00,258,Wunderground v.1.15,2013-07-21 15:15:00,
2013-07-21 08:25:00,54.9,53.8,29.83,WNW,292,0.0,0.0,96,0.00,,,0.00,294,Wunderground v.1.15,2013-07-21 15:25:00,
2013-07-21 08:35:00,55.2,54.1,29.83,WNW,296,0.0,2.0,96,0.00,,,0.00,325,Wunderground v.1.15,2013-07-21 15:35:00,
2013-07-21 08:45:00,55.4,54.3,29.83,WNW,300,1.0,3.0,96,0.00,,,0.00,367,Wunderground v.1.15,2013-07-21 15:45:00,
2013-07-21 08:55:00,55.7,54.6,29.83,NW,315,1.0,7.0,96,0.00,,,0.00,399,Wunderground v.1.15,2013-07-21 15:55:00,
2013-07-21 09:05:00,56.2,55.1,29.83,WNW,300,3.0,3.0,96,0.00,,,0.00,432,Wunderground v.1.15,2013-07-21 16:05:00,
2013-07-21 09:15:00,56.8,55.7,29.83,NW,305,2.0,4.0,96,0.00,,,0.00,475,Wunderground v.1.15,2013-07-21 16:15:00,
2013-07-21 09:25:00,57.6,56.5,29.83,NW,315,2.0,2.0,96,0.00,,,0.00,483,Wunderground v.1.15,2013-07-21 16:25:00,
2013-07-21 09:35:00,58.3,56.6,29.83,North,349,2.0,2.0,94,0.00,,,0.00,482,Wunderground v.1.15,2013-07-21 16:35:00,
2013-07-21 09:45:00,59.4,57.4,29.83,WNW,283,2.0,2.0,93,0.00,,,0.00,469,Wunderground v.1.15,2013-07-21 16:45:00,
2013-07-21 09:55:00,60.2,56.9,29.83,WNW,295,3.0,6.0,89,0.00,,,0.00,462,Wunderground v.1.15,2013-07-21 16:55:00,
2013-07-21 10:05:00,61.1,56.2,29.83,WNW,300,3.0,3.0,84,0.00,,,0.00,469,Wunderground v.1.15,2013-07-21 17:05:00,
2013-07-21 10:15:00,61.9,56.0,29.83,NW,310,1.0,1.0,81,0.00,,,0.00,540,Wunderground v.1.15,2013-07-21 17:15:00,
2013-07-21 10:25:00,62.3,56.4,29.84,WNW,302,2.0,2.0,81,0.00,,,0.00,612,Wunderground v.1.15,2013-07-21 17:25:00,
2013-07-21 10:35:00,63.2,56.9,29.84,NNW,337,1.0,1.0,80,0.00,,,0.00,687,Wunderground v.1.15,2013-07-21 17:35:00,
2013-07-21 10:45:00,63.0,55.7,29.84,NNE,32,3.0,3.0,77,0.00,,,0.00,714,Wunderground v.1.15,2013-07-21 17:45:00,
2013-07-21 10:55:00,62.3,55.4,29.84,NNE,17,7.0,9.0,78,0.00,,,0.00,754,Wunderground v.1.15,2013-07-21 17:55:00,
2013-07-21 11:05:00,62.3,55.4,29.84,North,9,7.0,7.0,78,0.00,,,0.00,775,Wunderground v.1.15,2013-07-21 18:05:00,
2013-07-21 11:15:00,62.7,55.7,29.84,NNW,330,7.0,7.0,78,0.00,,,0.00,786,Wunderground v.1.15,2013-07-21 18:15:00,
2013-07-21 11:25:00,63.2,55.5,29.84,NNE,28,7.0,7.0,76,0.00,,,0.00,817,Wunderground v.1.15,2013-07-21 18:25:00,
2013-07-21 11:35:00,63.7,55.6,29.84,NNE,31,7.0,7.0,75,0.00,,,0.00,837,Wunderground v.1.15,2013-07-21 18:35:00,
2013-07-21 11:45:00,64.1,54.9,29.84,NE,37,8.0,8.0,72,0.00,,,0.00,851,Wunderground v.1.15,2013-07-21 18:45:00,
2013-07-21 11:55:00,64.6,55.0,29.84,NNE,30,7.0,7.0,71,0.00,,,0.00,861,Wunderground v.1.15,2013-07-21 18:55:00,
2013-07-21 12:05:00,65.2,55.2,29.84,NE,36,5.0,6.0,70,0.00,,,0.00,874,Wunderground v.1.15,2013-07-21 19:05:00,
2013-07-21 12:15:00,66.0,55.1,29.84,NNE,20,5.0,12.0,68,0.00,,,0.00,896,Wunderground v.1.15,2013-07-21 19:15:00,
2013-07-21 12:25:00,66.7,55.4,29.84,NE,40,7.0,7.0,67,0.00,,,0.00,907,Wunderground v.1.15,2013-07-21 19:25:00,
2013-07-21 12:35:00,67.4,56.1,29.84,NE,37,6.0,6.0,67,0.00,,,0.00,912,Wunderground v.1.15,2013-07-21 19:35:00,
2013-07-21 12:45:00,67.6,55.4,29.84,NNE,24,7.0,7.0,65,0.00,,,0.00,916,Wunderground v.1.15,2013-07-21 19:45:00,
2013-07-21 12:55:00,67.4,55.6,29.84,NNE,24,8.0,9.0,66,0.00,,,0.00,923,Wunderground v.1.15,2013-07-21 19:55:00,
2013-07-21 13:05:00,67.8,55.6,29.84,North,9,7.0,7.0,65,0.00,,,0.00,933,Wunderground v.1.15,2013-07-21 20:05:00,
2013-07-21 13:15:00,68.7,56.0,29.84,NE,40,7.0,9.0,64,0.00,,,0.00,939,Wunderground v.1.15,2013-07-21 20:15:00,
2013-07-21 13:25:00,68.9,55.8,29.83,North,5,8.0,8.0,63,0.00,,,0.00,946,Wunderground v.1.15,2013-07-21 20:25:00,
2013-07-21 13:35:00,69.2,56.1,29.83,NNE,22,9.0,10.0,63,0.00,,,0.00,944,Wunderground v.1.15,2013-07-21 20:35:00,
2013-07-21 13:45:00,69.5,56.3,29.83,NE,38,8.0,8.0,63,0.00,,,0.00,946,Wunderground v.1.15,2013-07-21 20:45:00,
2013-07-21 13:55:00,70.0,55.9,29.83,NE,38,7.0,7.0,61,0.00,,,0.00,939,Wunderground v.1.15,2013-07-21 20:55:00,
2013-07-21 14:05:00,70.0,55.9,29.83,NE,36,8.0,8.0,61,0.00,,,0.00,935,Wunderground v.1.15,2013-07-21 21:05:00,
2013-07-21 14:15:00,70.5,56.4,29.83,NNE,28,8.0,8.0,61,0.00,,,0.00,926,Wunderground v.1.15,2013-07-21 21:15:00,
2013-07-21 14:25:00,71.1,56.5,29.83,NNE,25,7.0,7.0,60,0.00,,,0.00,919,Wunderground v.1.15,2013-07-21 21:25:00,
2013-07-21 14:35:00,72.3,57.2,29.83,NNE,33,7.0,8.0,59,0.00,,,0.00,909,Wunderground v.1.15,2013-07-21 21:35:00,
2013-07-21 14:45:00,72.8,57.2,29.83,NE,34,7.0,9.0,58,0.00,,,0.00,902,Wunderground v.1.15,2013-07-21 21:45:00,
2013-07-21 14:55:00,72.9,57.3,29.83,North,5,6.0,6.0,58,0.00,,,0.00,891,Wunderground v.1.15,2013-07-21 21:55:00,
2013-07-21 15:05:00,74.1,57.4,29.83,North,5,4.0,7.0,56,0.00,,,0.00,881,Wunderground v.1.15,2013-07-21 22:05:00,
2013-07-21 15:15:00,74.9,57.6,29.83,NW,315,5.0,5.0,55,0.00,,,0.00,868,Wunderground v.1.15,2013-07-21 22:15:00,
2013-07-21 15:25:00,75.5,57.7,29.83,NNE,15,5.0,5.0,54,0.00,,,0.00,840,Wunderground v.1.15,2013-07-21 22:25:00,
2013-07-21 15:35:00,76.1,58.2,29.82,NE,36,5.0,8.0,54,0.00,,,0.00,821,Wunderground v.1.15,2013-07-21 22:35:00,
2013-07-21 15:45:00,75.5,57.2,29.82,NNE,32,6.0,6.0,53,0.00,,,0.00,809,Wunderground v.1.15,2013-07-21 22:45:00,
2013-07-21 15:55:00,74.8,57.5,29.82,NNE,22,7.0,7.0,55,0.00,,,0.00,754,Wunderground v.1.15,2013-07-21 22:55:00,
2013-07-21 16:05:00,74.2,57.0,29.82,NE,44,7.0,8.0,55,0.00,,,0.00,768,Wunderground v.1.15,2013-07-21 23:05:00,
2013-07-21 16:15:00,73.5,56.8,29.81,NNE,25,8.0,10.0,56,0.00,,,0.00,731,Wunderground v.1.15,2013-07-21 23:15:00,
2013-07-21 16:25:00,72.7,56.6,29.81,NNE,27,8.0,10.0,57,0.00,,,0.00,708,Wunderground v.1.15,2013-07-21 23:25:00,
2013-07-21 16:35:00,71.8,56.7,29.81,NNE,32,8.0,9.0,59,0.00,,,0.00,673,Wunderground v.1.15,2013-07-21 23:35:00,
2013-07-21 16:45:00,71.8,56.7,29.81,NNE,32,7.0,7.0,59,0.00,,,0.00,657,Wunderground v.1.15,2013-07-21 23:45:00,
2013-07-21 16:55:00,71.8,56.2,29.81,NNE,30,6.0,7.0,58,0.00,,,0.00,643,Wunderground v.1.15,2013-07-21 23:55:00,
2013-07-21 17:05:00,71.9,56.3,29.81,NE,36,6.0,6.0,58,0.00,,,0.00,615,Wunderground v.1.15,2013-07-22 00:05:00,
2013-07-21 17:15:00,72.0,56.4,29.81,NNE,21,6.0,7.0,58,0.00,,,0.00,571,Wunderground v.1.15,2013-07-22 00:15:00,
2013-07-21 17:25:00,71.8,55.7,29.81,NNE,28,6.0,6.0,57,0.00,,,0.00,554,Wunderground v.1.15,2013-07-22 00:25:00,
2013-07-21 17:35:00,71.3,55.8,29.81,NNE,28,6.0,7.0,58,0.00,,,0.00,508,Wunderground v.1.15,2013-07-22 00:35:00,
2013-07-21 17:45:00,70.8,55.3,29.80,NE,35,6.0,6.0,58,0.00,,,0.00,478,Wunderground v.1.15,2013-07-22 00:45:00,
2013-07-21 17:55:00,70.5,55.5,29.81,NNE,31,5.0,7.0,59,0.00,,,0.00,445,Wunderground v.1.15,2013-07-22 00:55:00,
2013-07-21 18:05:00,69.8,55.3,29.81,NNE,32,6.0,7.0,60,0.00,,,0.00,429,Wunderground v.1.15,2013-07-22 01:05:00,
2013-07-21 18:15:00,69.0,55.0,29.81,NNE,29,6.0,6.0,61,0.00,,,0.00,396,Wunderground v.1.15,2013-07-22 01:15:00,
2013-07-21 18:25:00,68.6,54.6,29.81,NNE,23,6.0,6.0,61,0.00,,,0.00,348,Wunderground v.1.15,2013-07-22 01:25:00,
2013-07-21 18:35:00,67.8,54.3,29.82,NNE,32,6.0,6.0,62,0.00,,,0.00,315,Wunderground v.1.15,2013-07-22 01:35:00,
2013-07-21 18:45:00,67.2,54.2,29.82,North,9,5.0,5.0,63,0.00,,,0.00,281,Wunderground v.1.15,2013-07-22 01:45:00,
2013-07-21 18:55:00,67.1,54.5,29.82,North,5,5.0,5.0,64,0.00,,,0.00,264,Wunderground v.1.15,2013-07-22 01:55:00,
2013-07-21 19:05:00,65.9,53.8,29.82,NNE,26,6.0,6.0,65,0.00,,,0.00,230,Wunderground v.1.15,2013-07-22 02:05:00,
2013-07-21 19:15:00,64.9,53.7,29.82,NNE,21,7.0,7.0,67,0.00,,,0.00,195,Wunderground v.1.15,2013-07-22 02:15:00,
2013-07-21 19:25:00,64.5,53.7,29.82,NNE,19,6.0,6.0,68,0.00,,,0.00,144,Wunderground v.1.15,2013-07-22 02:25:00,
2013-07-21 19:35:00,63.9,53.1,29.83,NNE,26,4.0,4.0,68,0.00,,,0.00,109,Wunderground v.1.15,2013-07-22 02:35:00,
2013-07-21 19:45:00,63.1,53.2,29.83,NNE,26,4.0,5.0,70,0.00,,,0.00,40,Wunderground v.1.15,2013-07-22 02:45:00,
2013-07-21 19:55:00,62.5,52.6,29.83,NNE,23,4.0,4.0,70,0.00,,,0.00,35,Wunderground v.1.15,2013-07-22 02:55:00,
2013-07-21 20:05:00,62.0,52.9,29.83,NNE,23,0.0,0.0,72,0.00,,,0.00,21,Wunderground v.1.15,2013-07-22 03:05:00,
2013-07-21 20:15:00,61.6,52.9,29.83,NNE,23,0.0,0.0,73,0.00,,,0.00,19,Wunderground v.1.15,2013-07-22 03:15:00,
2013-07-21 20:25:00,61.0,52.7,29.84,NNE,23,0.0,0.0,74,0.00,,,0.00,5,Wunderground v.1.15,2013-07-22 03:25:00,
2013-07-21 20:35:00,60.4,52.4,29.84,NNE,23,0.0,0.0,75,0.00,,,0.00,0,Wunderground v.1.15,2013-07-22 03:35:00,
2013-07-21 20:45:00,60.0,52.4,29.84,NNE,23,0.0,0.0,76,0.00,,,0.00,0,Wunderground v.1.15,2013-07-22 03:45:00,
2013-07-21 20:55:00,59.5,52.3,29.84,NNE,23,0.0,0.0,77,0.00,,,0.00,0,Wunderground v.1.15,2013-07-22 03:55:00,
2013-07-21 21:05:00,59.1,52.6,29.84,NNE,23,0.0,0.0,79,0.00,,,0.00,0,Wunderground v.1.15,2013-07-22 04:05:00,
2013-07-21 21:15:00,58.7,52.5,29.84,NNE,23,0.0,0.0,80,0.00,,,0.00,0,Wunderground v.1.15,2013-07-22 04:15:00,
2013-07-21 21:25:00,58.3,52.5,29.85,NNE,23,0.0,0.0,81,0.00,,,0.00,0,Wunderground v.1.15,2013-07-22 04:25:00,
2013-07-21 21:35:00,57.8,52.0,29.85,NNE,23,0.0,0.0,81,0.00,,,0.00,0,Wunderground v.1.15,2013-07-22 04:35:00,
2013-07-21 21:45:00,57.1,51.7,29.86,NNE,22,1.0,1.0,82,0.00,,,0.00,0,Wunderground v.1.15,2013-07-22 04:45:00,
2013-07-21 21:55:00,56.4,51.6,29.87,NNE,26,1.0,5.0,84,0.00,,,0.00,0,Wunderground v.1.15,2013-07-22 04:55:00,
2013-07-21 22:05:00,55.9,51.8,29.87,NNE,26,1.0,1.0,86,0.00,,,0.00,0,Wunderground v.1.15,2013-07-22 05:05:00,
2013-07-21 22:15:00,55.5,51.7,29.88,NNE,26,0.0,0.0,87,0.00,,,0.00,0,Wunderground v.1.15,2013-07-22 05:15:00,
2013-07-21 22:25:00,55.2,51.4,29.88,NNE,26,0.0,0.0,87,0.00,,,0.00,0,Wunderground v.1.15,2013-07-22 05:25:00,
2013-07-21 22:35:00,55.0,51.5,29.88,NNE,26,0.0,0.0,88,0.00,,,0.00,0,Wunderground v.1.15,2013-07-22 05:35:00,
2013-07-21 22:45:00,54.7,51.2,29.88,NNE,26,0.0,0.0,88,0.00,,,0.00,0,Wunderground v.1.15,2013-07-22 05:45:00,
2013-07-21 22:55:00,54.5,51.3,29.88,NNE,26,0.0,0.0,89,0.00,,,0.00,0,Wunderground v.1.15,2013-07-22 05:55:00,
2013-07-21 23:05:00,54.4,51.2,29.88,NNE,26,0.0,0.0,89,0.00,,,0.00,0,Wunderground v.1.15,2013-07-22 06:05:00,
2013-07-21 23:15:00,54.3,51.4,29.89,NNE,26,0.0,0.0,90,0.00,,,0.00,0,Wunderground v.1.15,2013-07-22 06:15:00,
2013-07-21 23:25:00,54.3,51.4,29.89,NNE,26,0.0,0.0,90,0.00,,,0.00,0,Wunderground v.1.15,2013-07-22 06:25:00,
2013-07-21 23:35:00,54.3,51.4,29.89,NNE,26,0.0,0.0,90,0.00,,,0.00,0,Wunderground v.1.15,2013-07-22 06:35:00,
2013-07-21 23:45:00,54.4,51.5,29.89,NNE,26,0.0,0.0,90,0.00,,,0.00,0,Wunderground v.1.15,2013-07-22 06:45:00,
2013-07-21 23:55:00,54.5,51.6,29.89,NNE,26,0.0,0.0,90,0.00,,,0.00,0,Wunderground v.1.15,2013-07-22 06:55:00,